Airport View

Enter AWOS ICAO identifier for current METAR.

ex. KFNL

KASE 251053Z AUTO 16003KT 10SM FEW110 11/M07 A2979 RMK AO2 SLP973 T01111067

25 Oct 2020 11:21

Frequency: 120.400

Phone: 970-925-9168

Other Area AWOS: KEGE - KLXV - K5SM - KCCU

TAF KASE 250538Z 2506/2606 VRB04KT P6SM VCSH SCT080 BKN120 FM251500 16006KT P6SM VCSH SCT030 OVC050 FM251800 31008KT 4SM -SHRASN BR SCT018 OVC025 FM252000 32010G21KT 2SM -SN BR OVC010 FM252300 30007KT 2SM -SN BR SCT012 OVC030